sensor_id;sensor_type;location;lat;lon;timestamp;temperature;humidity
25450;DHT22;13371;52.080;5.624;2022-07-01T00:01:28;17.80;97.70
25450;DHT22;13371;52.080;5.624;2022-07-01T00:03:54;17.90;97.80
25450;DHT22;13371;52.080;5.624;2022-07-01T00:06:20;18.10;97.70
25450;DHT22;13371;52.080;5.624;2022-07-01T00:08:51;17.80;97.90
25450;DHT22;13371;52.080;5.624;2022-07-01T00:11:17;17.90;97.80
25450;DHT22;13371;52.080;5.624;2022-07-01T00:13:43;18.10;97.70
25450;DHT22;13371;52.080;5.624;2022-07-01T00:16:08;18.20;97.70
25450;DHT22;13371;52.080;5.624;2022-07-01T00:18:34;18.40;96.80
25450;DHT22;13371;52.080;5.624;2022-07-01T00:20:59;18.30;96.80
25450;DHT22;13371;52.080;5.624;2022-07-01T00:23:27;18.30;97.20
25450;DHT22;13371;52.080;5.624;2022-07-01T00:25:53;18.30;96.60
25450;DHT22;13371;52.080;5.624;2022-07-01T00:28:19;18.30;96.90
25450;DHT22;13371;52.080;5.624;2022-07-01T00:30:44;18.30;96.90
25450;DHT22;13371;52.080;5.624;2022-07-01T00:33:10;18.30;96.90
25450;DHT22;13371;52.080;5.624;2022-07-01T00:35:36;18.30;96.80
25450;DHT22;13371;52.080;5.624;2022-07-01T00:38:01;18.50;96.70
25450;DHT22;13371;52.080;5.624;2022-07-01T00:40:27;18.60;96.30
25450;DHT22;13371;52.080;5.624;2022-07-01T00:42:52;18.50;96.40
25450;DHT22;13371;52.080;5.624;2022-07-01T00:45:18;18.40;96.30
25450;DHT22;13371;52.080;5.624;2022-07-01T00:47:44;18.00;97.30
25450;DHT22;13371;52.080;5.624;2022-07-01T00:50:12;18.10;96.90
25450;DHT22;13371;52.080;5.624;2022-07-01T00:52:39;17.70;97.70
25450;DHT22;13371;52.080;5.624;2022-07-01T00:55:10;17.80;97.40
25450;DHT22;13371;52.080;5.624;2022-07-01T00:57:37;17.90;97.40
25450;DHT22;13371;52.080;5.624;2022-07-01T01:02:31;17.60;97.80
25450;DHT22;13371;52.080;5.624;2022-07-01T01:04:56;17.70;97.90
25450;DHT22;13371;52.080;5.624;2022-07-01T01:07:22;17.80;97.90
25450;DHT22;13371;52.080;5.624;2022-07-01T01:09:48;17.70;98.00
25450;DHT22;13371;52.080;5.624;2022-07-01T01:12:14;17.80;97.90
25450;DHT22;13371;52.080;5.624;2022-07-01T01:14:48;17.80;97.70
25450;DHT22;13371;52.080;5.624;2022-07-01T01:17:14;17.50;98.30
25450;DHT22;13371;52.080;5.624;2022-07-01T01:19:41;17.50;99.00
25450;DHT22;13371;52.080;5.624;2022-07-01T01:22:07;17.40;99.10
25450;DHT22;13371;52.080;5.624;2022-07-01T01:24:32;17.10;99.20
25450;DHT22;13371;52.080;5.624;2022-07-01T01:26:58;17.00;99.60
25450;DHT22;13371;52.080;5.624;2022-07-01T01:29:24;17.00;99.90
25450;DHT22;13371;52.080;5.624;2022-07-01T01:31:49;16.80;99.90
25450;DHT22;13371;52.080;5.624;2022-07-01T01:34:15;16.70;99.90
25450;DHT22;13371;52.080;5.624;2022-07-01T01:36:41;16.70;99.90
25450;DHT22;13371;52.080;5.624;2022-07-01T01:39:07;16.90;99.90
25450;DHT22;13371;52.080;5.624;2022-07-01T01:41:50;16.80;99.90
25450;DHT22;13371;52.080;5.624;2022-07-01T01:44:16;17.00;99.80
25450;DHT22;13371;52.080;5.624;2022-07-01T01:46:42;16.90;99.90
25450;DHT22;13371;52.080;5.624;2022-07-01T01:49:08;16.90;99.80
25450;DHT22;13371;52.080;5.624;2022-07-01T01:51:33;16.80;99.80
25450;DHT22;13371;52.080;5.624;2022-07-01T01:53:59;16.80;99.90
25450;DHT22;13371;52.080;5.624;2022-07-01T01:56:26;16.80;99.90
25450;DHT22;13371;52.080;5.624;2022-07-01T01:58:52;16.70;99.90
25450;DHT22;13371;52.080;5.624;2022-07-01T02:01:20;16.80;99.90
25450;DHT22;13371;52.080;5.624;2022-07-01T02:03:46;16.90;99.80
25450;DHT22;13371;52.080;5.624;2022-07-01T02:06:13;17.00;99.60
25450;DHT22;13371;52.080;5.624;2022-07-01T02:08:40;17.10;99.70
25450;DHT22;13371;52.080;5.624;2022-07-01T02:11:06;17.20;99.00
25450;DHT22;13371;52.080;5.624;2022-07-01T02:13:32;17.20;99.20
25450;DHT22;13371;52.080;5.624;2022-07-01T02:15:58;17.20;98.70
25450;DHT22;13371;52.080;5.624;2022-07-01T02:18:24;17.10;99.20
25450;DHT22;13371;52.080;5.624;2022-07-01T02:20:49;16.80;99.20
25450;DHT22;13371;52.080;5.624;2022-07-01T02:23:15;16.90;99.30
25450;DHT22;13371;52.080;5.624;2022-07-01T02:25:41;16.90;99.20
25450;DHT22;13371;52.080;5.624;2022-07-01T02:28:08;17.00;99.00
25450;DHT22;13371;52.080;5.624;2022-07-01T02:30:34;17.00;98.90
25450;DHT22;13371;52.080;5.624;2022-07-01T02:33:05;17.20;98.20
25450;DHT22;13371;52.080;5.624;2022-07-01T02:35:35;17.30;98.20
25450;DHT22;13371;52.080;5.624;2022-07-01T02:38:01;17.40;97.80
25450;DHT22;13371;52.080;5.624;2022-07-01T02:40:27;17.30;97.90
25450;DHT22;13371;52.080;5.624;2022-07-01T02:42:53;17.40;97.60
25450;DHT22;13371;52.080;5.624;2022-07-01T02:45:18;17.40;97.70
25450;DHT22;13371;52.080;5.624;2022-07-01T02:47:44;17.50;97.20
25450;DHT22;13371;52.080;5.624;2022-07-01T02:50:13;17.50;97.60
25450;DHT22;13371;52.080;5.624;2022-07-01T02:52:40;17.50;97.10
25450;DHT22;13371;52.080;5.624;2022-07-01T02:55:08;17.20;97.80
25450;DHT22;13371;52.080;5.624;2022-07-01T02:57:34;17.30;97.70
25450;DHT22;13371;52.080;5.624;2022-07-01T03:00:00;17.40;97.60
25450;DHT22;13371;52.080;5.624;2022-07-01T03:02:25;17.50;97.20
25450;DHT22;13371;52.080;5.624;2022-07-01T03:04:52;17.40;97.20
25450;DHT22;13371;52.080;5.624;2022-07-01T03:07:19;17.20;97.20
25450;DHT22;13371;52.080;5.624;2022-07-01T03:09:45;16.90;97.60
25450;DHT22;13371;52.080;5.624;2022-07-01T03:12:11;17.10;97.80
25450;DHT22;13371;52.080;5.624;2022-07-01T03:15:00;17.20;97.20
25450;DHT22;13371;52.080;5.624;2022-07-01T03:17:28;17.10;97.50
25450;DHT22;13371;52.080;5.624;2022-07-01T03:19:54;17.10;97.10
25450;DHT22;13371;52.080;5.624;2022-07-01T03:22:22;17.10;97.40
25450;DHT22;13371;52.080;5.624;2022-07-01T03:24:48;17.00;97.30
25450;DHT22;13371;52.080;5.624;2022-07-01T03:27:15;17.20;97.30
25450;DHT22;13371;52.080;5.624;2022-07-01T03:29:41;17.20;97.00
25450;DHT22;13371;52.080;5.624;2022-07-01T03:32:07;17.10;97.20
25450;DHT22;13371;52.080;5.624;2022-07-01T03:34:38;16.70;98.00
25450;DHT22;13371;52.080;5.624;2022-07-01T03:37:06;16.90;97.70
25450;DHT22;13371;52.080;5.624;2022-07-01T03:39:32;16.60;97.90
25450;DHT22;13371;52.080;5.624;2022-07-01T03:41:58;16.90;98.30
25450;DHT22;13371;52.080;5.624;2022-07-01T03:44:23;17.00;97.30
25450;DHT22;13371;52.080;5.624;2022-07-01T03:46:49;16.80;97.70
25450;DHT22;13371;52.080;5.624;2022-07-01T03:49:14;17.00;97.60
25450;DHT22;13371;52.080;5.624;2022-07-01T03:51:40;17.00;97.40
25450;DHT22;13371;52.080;5.624;2022-07-01T03:54:06;17.10;97.70
25450;DHT22;13371;52.080;5.624;2022-07-01T03:56:50;17.20;97.50
25450;DHT22;13371;52.080;5.624;2022-07-01T03:59:15;16.90;97.40
25450;DHT22;13371;52.080;5.624;2022-07-01T04:01:41;17.00;97.70
25450;DHT22;13371;52.080;5.624;2022-07-01T04:04:07;16.80;98.20
25450;DHT22;13371;52.080;5.624;2022-07-01T04:06:32;16.80;98.20
25450;DHT22;13371;52.080;5.624;2022-07-01T04:08:58;16.70;98.30
25450;DHT22;13371;52.080;5.624;2022-07-01T04:11:24;16.70;98.80
25450;DHT22;13371;52.080;5.624;2022-07-01T04:13:49;16.80;98.60
25450;DHT22;13371;52.080;5.624;2022-07-01T04:16:17;16.80;98.30
25450;DHT22;13371;52.080;5.624;2022-07-01T04:18:43;17.00;98.70
25450;DHT22;13371;52.080;5.624;2022-07-01T04:21:09;17.10;97.90
25450;DHT22;13371;52.080;5.624;2022-07-01T04:23:53;17.00;98.30
25450;DHT22;13371;52.080;5.624;2022-07-01T04:26:19;17.10;98.00
25450;DHT22;13371;52.080;5.624;2022-07-01T04:28:44;17.00;97.70
25450;DHT22;13371;52.080;5.624;2022-07-01T04:31:10;17.00;97.80
25450;DHT22;13371;52.080;5.624;2022-07-01T04:33:35;17.00;98.00
25450;DHT22;13371;52.080;5.624;2022-07-01T04:36:01;16.50;98.60
25450;DHT22;13371;52.080;5.624;2022-07-01T04:38:27;16.40;99.20
25450;DHT22;13371;52.080;5.624;2022-07-01T04:40:52;16.40;99.10
25450;DHT22;13371;52.080;5.624;2022-07-01T04:43:36;16.50;99.20
25450;DHT22;13371;52.080;5.624;2022-07-01T04:46:02;16.70;99.20
25450;DHT22;13371;52.080;5.624;2022-07-01T04:48:28;16.90;98.40
25450;DHT22;13371;52.080;5.624;2022-07-01T04:50:53;16.80;98.10
25450;DHT22;13371;52.080;5.624;2022-07-01T04:53:19;16.70;98.30
25450;DHT22;13371;52.080;5.624;2022-07-01T04:55:45;16.60;98.80
25450;DHT22;13371;52.080;5.624;2022-07-01T04:58:11;16.90;98.10
25450;DHT22;13371;52.080;5.624;2022-07-01T05:00:37;16.90;98.60
25450;DHT22;13371;52.080;5.624;2022-07-01T05:03:03;16.70;98.70
25450;DHT22;13371;52.080;5.624;2022-07-01T05:05:28;16.50;99.00
25450;DHT22;13371;52.080;5.624;2022-07-01T05:07:54;16.70;98.90
25450;DHT22;13371;52.080;5.624;2022-07-01T05:10:19;16.70;98.80
25450;DHT22;13371;52.080;5.624;2022-07-01T05:12:45;16.50;99.00
25450;DHT22;13371;52.080;5.624;2022-07-01T05:15:10;16.80;99.00
25450;DHT22;13371;52.080;5.624;2022-07-01T05:17:36;16.90;98.40
25450;DHT22;13371;52.080;5.624;2022-07-01T05:20:28;16.70;99.40
25450;DHT22;13371;52.080;5.624;2022-07-01T05:23:12;16.60;99.20
25450;DHT22;13371;52.080;5.624;2022-07-01T05:25:37;16.80;99.30
25450;DHT22;13371;52.080;5.624;2022-07-01T05:28:03;16.70;98.90
25450;DHT22;13371;52.080;5.624;2022-07-01T05:30:29;16.90;98.80
25450;DHT22;13371;52.080;5.624;2022-07-01T05:32:55;17.00;98.60
25450;DHT22;13371;52.080;5.624;2022-07-01T05:35:20;17.00;99.00
25450;DHT22;13371;52.080;5.624;2022-07-01T05:37:46;16.80;98.80
25450;DHT22;13371;52.080;5.624;2022-07-01T05:40:12;16.90;99.30
25450;DHT22;13371;52.080;5.624;2022-07-01T05:42:37;16.90;98.90
25450;DHT22;13371;52.080;5.624;2022-07-01T05:45:03;17.00;99.20
25450;DHT22;13371;52.080;5.624;2022-07-01T05:47:29;17.10;99.20
25450;DHT22;13371;52.080;5.624;2022-07-01T05:49:54;16.90;98.80
25450;DHT22;13371;52.080;5.624;2022-07-01T05:52:20;16.90;99.40
25450;DHT22;13371;52.080;5.624;2022-07-01T05:54:45;16.60;99.60
25450;DHT22;13371;52.080;5.624;2022-07-01T05:57:11;16.80;99.70
25450;DHT22;13371;52.080;5.624;2022-07-01T05:59:37;17.00;99.30
25450;DHT22;13371;52.080;5.624;2022-07-01T06:02:02;17.10;98.70
25450;DHT22;13371;52.080;5.624;2022-07-01T06:04:28;16.80;99.30
25450;DHT22;13371;52.080;5.624;2022-07-01T06:06:54;16.60;99.80
25450;DHT22;13371;52.080;5.624;2022-07-01T06:09:19;16.80;99.80
25450;DHT22;13371;52.080;5.624;2022-07-01T06:11:45;16.90;99.60
25450;DHT22;13371;52.080;5.624;2022-07-01T06:14:11;17.20;99.10
25450;DHT22;13371;52.080;5.624;2022-07-01T06:16:37;17.20;99.20
25450;DHT22;13371;52.080;5.624;2022-07-01T06:19:04;17.40;98.80
25450;DHT22;13371;52.080;5.624;2022-07-01T06:21:29;17.30;98.40
25450;DHT22;13371;52.080;5.624;2022-07-01T06:23:55;17.20;98.60
25450;DHT22;13371;52.080;5.624;2022-07-01T06:26:21;17.20;99.10
25450;DHT22;13371;52.080;5.624;2022-07-01T06:28:46;17.40;98.40
25450;DHT22;13371;52.080;5.624;2022-07-01T06:31:12;17.50;98.10
25450;DHT22;13371;52.080;5.624;2022-07-01T06:33:37;17.60;98.00
25450;DHT22;13371;52.080;5.624;2022-07-01T06:36:03;17.70;97.50
25450;DHT22;13371;52.080;5.624;2022-07-01T06:38:29;17.40;97.90
25450;DHT22;13371;52.080;5.624;2022-07-01T06:40:55;17.40;98.20
25450;DHT22;13371;52.080;5.624;2022-07-01T06:43:39;17.30;98.30
25450;DHT22;13371;52.080;5.624;2022-07-01T06:46:05;17.30;98.70
25450;DHT22;13371;52.080;5.624;2022-07-01T06:48:30;17.40;98.80
25450;DHT22;13371;52.080;5.624;2022-07-01T06:50:56;17.40;98.60
25450;DHT22;13371;52.080;5.624;2022-07-01T06:53:22;17.40;98.30
25450;DHT22;13371;52.080;5.624;2022-07-01T06:55:47;17.40;98.40
25450;DHT22;13371;52.080;5.624;2022-07-01T06:58:13;17.30;98.40
25450;DHT22;13371;52.080;5.624;2022-07-01T07:00:39;17.50;98.30
25450;DHT22;13371;52.080;5.624;2022-07-01T07:03:04;17.50;98.00
25450;DHT22;13371;52.080;5.624;2022-07-01T07:05:30;17.40;98.20
25450;DHT22;13371;52.080;5.624;2022-07-01T07:07:57;17.50;98.50
25450;DHT22;13371;52.080;5.624;2022-07-01T07:10:23;17.60;98.70
25450;DHT22;13371;52.080;5.624;2022-07-01T07:12:49;17.90;99.00
25450;DHT22;13371;52.080;5.624;2022-07-01T07:15:15;17.70;98.10
25450;DHT22;13371;52.080;5.624;2022-07-01T07:17:41;17.90;98.50
25450;DHT22;13371;52.080;5.624;2022-07-01T07:20:07;17.80;98.50
25450;DHT22;13371;52.080;5.624;2022-07-01T07:22:33;18.00;97.10
25450;DHT22;13371;52.080;5.624;2022-07-01T07:24:58;18.00;97.80
25450;DHT22;13371;52.080;5.624;2022-07-01T07:27:24;18.10;97.50
25450;DHT22;13371;52.080;5.624;2022-07-01T07:29:49;18.20;97.50
25450;DHT22;13371;52.080;5.624;2022-07-01T07:32:15;18.10;96.80
25450;DHT22;13371;52.080;5.624;2022-07-01T07:34:41;18.10;96.80
25450;DHT22;13371;52.080;5.624;2022-07-01T07:37:06;18.10;97.30
25450;DHT22;13371;52.080;5.624;2022-07-01T07:39:32;18.20;97.10
25450;DHT22;13371;52.080;5.624;2022-07-01T07:41:58;18.50;96.90
25450;DHT22;13371;52.080;5.624;2022-07-01T07:44:23;18.80;97.60
25450;DHT22;13371;52.080;5.624;2022-07-01T07:46:49;18.80;95.80
25450;DHT22;13371;52.080;5.624;2022-07-01T07:49:15;18.80;96.10
25450;DHT22;13371;52.080;5.624;2022-07-01T07:51:40;18.70;96.00
25450;DHT22;13371;52.080;5.624;2022-07-01T07:54:06;18.70;96.40
25450;DHT22;13371;52.080;5.624;2022-07-01T07:56:32;18.80;97.10
25450;DHT22;13371;52.080;5.624;2022-07-01T07:58:57;18.90;96.30
25450;DHT22;13371;52.080;5.624;2022-07-01T08:01:23;19.20;96.20
25450;DHT22;13371;52.080;5.624;2022-07-01T08:03:48;19.40;94.50
25450;DHT22;13371;52.080;5.624;2022-07-01T08:06:14;19.30;94.80
25450;DHT22;13371;52.080;5.624;2022-07-01T08:08:40;19.40;94.90
25450;DHT22;13371;52.080;5.624;2022-07-01T08:11:05;19.60;94.50
25450;DHT22;13371;52.080;5.624;2022-07-01T08:13:31;19.80;94.70
25450;DHT22;13371;52.080;5.624;2022-07-01T08:15:57;19.50;94.10
25450;DHT22;13371;52.080;5.624;2022-07-01T08:18:23;19.60;94.10
25450;DHT22;13371;52.080;5.624;2022-07-01T08:20:48;19.80;93.60
25450;DHT22;13371;52.080;5.624;2022-07-01T08:23:20;19.70;93.20
25450;DHT22;13371;52.080;5.624;2022-07-01T08:25:47;19.30;92.80
25450;DHT22;13371;52.080;5.624;2022-07-01T08:28:13;19.20;94.00
25450;DHT22;13371;52.080;5.624;2022-07-01T08:30:39;19.20;94.00
25450;DHT22;13371;52.080;5.624;2022-07-01T08:33:04;19.30;93.50
25450;DHT22;13371;52.080;5.624;2022-07-01T08:35:30;19.00;93.80
25450;DHT22;13371;52.080;5.624;2022-07-01T08:37:56;18.80;94.30
25450;DHT22;13371;52.080;5.624;2022-07-01T08:40:26;18.70;93.50
25450;DHT22;13371;52.080;5.624;2022-07-01T08:42:55;19.10;94.00
25450;DHT22;13371;52.080;5.624;2022-07-01T08:45:22;19.10;93.40
25450;DHT22;13371;52.080;5.624;2022-07-01T08:47:49;19.30;93.10
25450;DHT22;13371;52.080;5.624;2022-07-01T08:50:15;19.40;92.30
25450;DHT22;13371;52.080;5.624;2022-07-01T08:52:41;19.70;92.40
25450;DHT22;13371;52.080;5.624;2022-07-01T08:55:07;20.00;92.40
25450;DHT22;13371;52.080;5.624;2022-07-01T08:57:32;20.30;92.30
25450;DHT22;13371;52.080;5.624;2022-07-01T09:00:03;20.30;91.20
25450;DHT22;13371;52.080;5.624;2022-07-01T09:02:52;20.20;90.30
25450;DHT22;13371;52.080;5.624;2022-07-01T09:05:19;20.60;91.20
25450;DHT22;13371;52.080;5.624;2022-07-01T09:07:46;20.90;87.80
25450;DHT22;13371;52.080;5.624;2022-07-01T09:10:18;20.50;87.40
25450;DHT22;13371;52.080;5.624;2022-07-01T09:12:45;20.40;88.10
25450;DHT22;13371;52.080;5.624;2022-07-01T09:17:53;20.40;89.30
25450;DHT22;13371;52.080;5.624;2022-07-01T09:20:27;20.70;89.80
25450;DHT22;13371;52.080;5.624;2022-07-01T09:23:03;20.90;88.70
25450;DHT22;13371;52.080;5.624;2022-07-01T09:25:41;21.30;88.30
25450;DHT22;13371;52.080;5.624;2022-07-01T09:28:12;21.40;86.30
25450;DHT22;13371;52.080;5.624;2022-07-01T09:30:38;21.20;86.80
25450;DHT22;13371;52.080;5.624;2022-07-01T09:33:17;21.10;88.20
25450;DHT22;13371;52.080;5.624;2022-07-01T09:35:44;21.30;84.50
25450;DHT22;13371;52.080;5.624;2022-07-01T09:38:13;21.40;85.20
25450;DHT22;13371;52.080;5.624;2022-07-01T09:40:56;22.10;88.10
25450;DHT22;13371;52.080;5.624;2022-07-01T09:43:24;22.10;83.40
25450;DHT22;13371;52.080;5.624;2022-07-01T09:45:56;22.00;81.50
25450;DHT22;13371;52.080;5.624;2022-07-01T09:48:25;22.60;82.20
25450;DHT22;13371;52.080;5.624;2022-07-01T09:50:51;22.80;78.80
25450;DHT22;13371;52.080;5.624;2022-07-01T09:53:17;22.60;81.60
25450;DHT22;13371;52.080;5.624;2022-07-01T09:55:43;22.50;81.40
25450;DHT22;13371;52.080;5.624;2022-07-01T09:58:09;22.40;78.80
25450;DHT22;13371;52.080;5.624;2022-07-01T10:00:36;21.80;81.30
25450;DHT22;13371;52.080;5.624;2022-07-01T10:03:06;21.90;79.40
25450;DHT22;13371;52.080;5.624;2022-07-01T10:05:49;21.90;76.60
25450;DHT22;13371;52.080;5.624;2022-07-01T10:13:43;21.70;73.90
25450;DHT22;13371;52.080;5.624;2022-07-01T10:16:10;21.50;76.40
25450;DHT22;13371;52.080;5.624;2022-07-01T10:18:36;21.50;75.60
25450;DHT22;13371;52.080;5.624;2022-07-01T10:21:02;21.50;73.70
25450;DHT22;13371;52.080;5.624;2022-07-01T10:23:41;21.50;74.40
25450;DHT22;13371;52.080;5.624;2022-07-01T10:26:08;21.70;73.90
25450;DHT22;13371;52.080;5.624;2022-07-01T10:28:42;21.90;79.70
25450;DHT22;13371;52.080;5.624;2022-07-01T10:31:10;22.20;74.90
25450;DHT22;13371;52.080;5.624;2022-07-01T10:33:55;22.50;75.60
25450;DHT22;13371;52.080;5.624;2022-07-01T10:44:19;22.60;74.10
25450;DHT22;13371;52.080;5.624;2022-07-01T10:46:49;22.40;74.90
25450;DHT22;13371;52.080;5.624;2022-07-01T10:49:22;22.40;72.10
25450;DHT22;13371;52.080;5.624;2022-07-01T10:52:10;22.30;72.00
25450;DHT22;13371;52.080;5.624;2022-07-01T10:59:51;22.80;72.00
25450;DHT22;13371;52.080;5.624;2022-07-01T11:02:22;22.90;72.80
25450;DHT22;13371;52.080;5.624;2022-07-01T11:04:49;22.40;70.80
25450;DHT22;13371;52.080;5.624;2022-07-01T11:07:15;22.40;71.40
25450;DHT22;13371;52.080;5.624;2022-07-01T11:09:40;21.90;74.70
25450;DHT22;13371;52.080;5.624;2022-07-01T11:12:07;21.90;72.00
25450;DHT22;13371;52.080;5.624;2022-07-01T11:14:37;21.50;74.10
25450;DHT22;13371;52.080;5.624;2022-07-01T11:17:04;21.60;74.70
25450;DHT22;13371;52.080;5.624;2022-07-01T11:19:30;21.90;74.30
25450;DHT22;13371;52.080;5.624;2022-07-01T11:21:56;22.10;75.00
25450;DHT22;13371;52.080;5.624;2022-07-01T11:24:22;22.30;71.60
25450;DHT22;13371;52.080;5.624;2022-07-01T11:26:49;22.30;71.60
25450;DHT22;13371;52.080;5.624;2022-07-01T11:29:19;22.40;74.30
25450;DHT22;13371;52.080;5.624;2022-07-01T11:31:48;22.10;72.90
25450;DHT22;13371;52.080;5.624;2022-07-01T11:34:16;22.50;71.70
25450;DHT22;13371;52.080;5.624;2022-07-01T11:36:43;22.60;69.70
25450;DHT22;13371;52.080;5.624;2022-07-01T11:39:27;22.50;69.60
25450;DHT22;13371;52.080;5.624;2022-07-01T11:41:59;22.90;68.60
25450;DHT22;13371;52.080;5.624;2022-07-01T11:44:41;22.90;68.50
25450;DHT22;13371;52.080;5.624;2022-07-01T11:47:10;23.00;72.20
25450;DHT22;13371;52.080;5.624;2022-07-01T11:49:44;23.10;68.90
25450;DHT22;13371;52.080;5.624;2022-07-01T11:52:11;23.10;65.60
25450;DHT22;13371;52.080;5.624;2022-07-01T11:54:39;23.10;66.20
25450;DHT22;13371;52.080;5.624;2022-07-01T11:57:09;23.10;66.50
25450;DHT22;13371;52.080;5.624;2022-07-01T11:59:35;23.20;73.40
25450;DHT22;13371;52.080;5.624;2022-07-01T12:02:04;23.50;67.80
25450;DHT22;13371;52.080;5.624;2022-07-01T12:04:30;23.40;67.10
25450;DHT22;13371;52.080;5.624;2022-07-01T12:06:56;23.50;66.50
25450;DHT22;13371;52.080;5.624;2022-07-01T12:09:23;23.70;66.60
25450;DHT22;13371;52.080;5.624;2022-07-01T12:11:50;23.40;67.10
25450;DHT22;13371;52.080;5.624;2022-07-01T12:14:24;23.30;68.30
25450;DHT22;13371;52.080;5.624;2022-07-01T12:16:51;23.40;68.10
25450;DHT22;13371;52.080;5.624;2022-07-01T12:19:17;23.40;64.10
25450;DHT22;13371;52.080;5.624;2022-07-01T12:21:49;23.50;67.30
25450;DHT22;13371;52.080;5.624;2022-07-01T12:24:16;23.50;66.00
25450;DHT22;13371;52.080;5.624;2022-07-01T12:26:52;23.40;65.80
25450;DHT22;13371;52.080;5.624;2022-07-01T12:29:21;23.40;67.10
25450;DHT22;13371;52.080;5.624;2022-07-01T12:32:02;23.50;69.20
25450;DHT22;13371;52.080;5.624;2022-07-01T12:34:50;23.80;67.50
25450;DHT22;13371;52.080;5.624;2022-07-01T12:37:16;23.80;68.90
25450;DHT22;13371;52.080;5.624;2022-07-01T12:39:53;23.90;67.60
25450;DHT22;13371;52.080;5.624;2022-07-01T12:42:24;24.20;66.70
25450;DHT22;13371;52.080;5.624;2022-07-01T12:44:50;24.40;62.90
25450;DHT22;13371;52.080;5.624;2022-07-01T12:47:28;24.40;64.60
25450;DHT22;13371;52.080;5.624;2022-07-01T12:50:19;24.60;63.30
25450;DHT22;13371;52.080;5.624;2022-07-01T12:53:11;24.30;62.00
25450;DHT22;13371;52.080;5.624;2022-07-01T12:55:44;24.20;66.50
25450;DHT22;13371;52.080;5.624;2022-07-01T12:58:13;24.20;69.20
25450;DHT22;13371;52.080;5.624;2022-07-01T13:00:41;24.50;65.80
25450;DHT22;13371;52.080;5.624;2022-07-01T13:03:08;24.50;64.90
25450;DHT22;13371;52.080;5.624;2022-07-01T13:05:36;24.60;66.60
25450;DHT22;13371;52.080;5.624;2022-07-01T13:08:02;24.90;64.40
25450;DHT22;13371;52.080;5.624;2022-07-01T13:10:28;24.90;64.60
25450;DHT22;13371;52.080;5.624;2022-07-01T13:12:54;24.90;65.10
25450;DHT22;13371;52.080;5.624;2022-07-01T13:15:20;24.60;63.60
25450;DHT22;13371;52.080;5.624;2022-07-01T13:17:47;24.50;65.60
25450;DHT22;13371;52.080;5.624;2022-07-01T13:20:14;24.30;65.30
25450;DHT22;13371;52.080;5.624;2022-07-01T13:22:40;24.40;64.30
25450;DHT22;13371;52.080;5.624;2022-07-01T13:25:06;24.30;67.70
25450;DHT22;13371;52.080;5.624;2022-07-01T13:27:32;24.40;66.40
25450;DHT22;13371;52.080;5.624;2022-07-01T13:29:58;24.40;67.10
25450;DHT22;13371;52.080;5.624;2022-07-01T13:32:24;24.30;64.70
25450;DHT22;13371;52.080;5.624;2022-07-01T13:34:50;24.20;63.80
25450;DHT22;13371;52.080;5.624;2022-07-01T13:37:16;23.80;64.50
25450;DHT22;13371;52.080;5.624;2022-07-01T13:39:41;23.60;64.70
25450;DHT22;13371;52.080;5.624;2022-07-01T13:42:07;23.40;66.50
25450;DHT22;13371;52.080;5.624;2022-07-01T13:44:33;23.40;67.20
25450;DHT22;13371;52.080;5.624;2022-07-01T13:46:59;23.10;66.80
25450;DHT22;13371;52.080;5.624;2022-07-01T13:49:25;23.00;67.40
25450;DHT22;13371;52.080;5.624;2022-07-01T13:51:50;22.90;68.50
25450;DHT22;13371;52.080;5.624;2022-07-01T13:54:16;22.80;69.10
25450;DHT22;13371;52.080;5.624;2022-07-01T13:56:42;22.80;69.50
25450;DHT22;13371;52.080;5.624;2022-07-01T13:59:08;23.00;68.20
25450;DHT22;13371;52.080;5.624;2022-07-01T14:01:34;22.90;70.80
25450;DHT22;13371;52.080;5.624;2022-07-01T14:04:00;23.00;68.90
25450;DHT22;13371;52.080;5.624;2022-07-01T14:06:26;22.80;68.50
25450;DHT22;13371;52.080;5.624;2022-07-01T14:08:52;22.60;71.20
25450;DHT22;13371;52.080;5.624;2022-07-01T14:11:17;22.70;71.70
25450;DHT22;13371;52.080;5.624;2022-07-01T14:13:43;22.70;70.40
25450;DHT22;13371;52.080;5.624;2022-07-01T14:16:09;22.60;72.20
25450;DHT22;13371;52.080;5.624;2022-07-01T14:18:36;22.40;72.30
25450;DHT22;13371;52.080;5.624;2022-07-01T14:21:03;22.60;71.00
25450;DHT22;13371;52.080;5.624;2022-07-01T14:23:29;22.60;73.00
25450;DHT22;13371;52.080;5.624;2022-07-01T14:25:54;22.90;73.10
25450;DHT22;13371;52.080;5.624;2022-07-01T14:28:20;23.30;69.40
25450;DHT22;13371;52.080;5.624;2022-07-01T14:30:46;23.50;68.50
25450;DHT22;13371;52.080;5.624;2022-07-01T14:33:12;23.60;68.60
25450;DHT22;13371;52.080;5.624;2022-07-01T14:35:38;23.60;68.10
25450;DHT22;13371;52.080;5.624;2022-07-01T14:38:04;23.30;70.30
25450;DHT22;13371;52.080;5.624;2022-07-01T14:40:31;23.10;69.10
25450;DHT22;13371;52.080;5.624;2022-07-01T14:42:58;23.00;69.80
25450;DHT22;13371;52.080;5.624;2022-07-01T14:45:23;22.90;72.90
25450;DHT22;13371;52.080;5.624;2022-07-01T14:47:49;22.90;72.40
25450;DHT22;13371;52.080;5.624;2022-07-01T14:50:14;22.90;71.30
25450;DHT22;13371;52.080;5.624;2022-07-01T14:52:40;22.60;71.00
25450;DHT22;13371;52.080;5.624;2022-07-01T14:55:06;22.50;72.20
25450;DHT22;13371;52.080;5.624;2022-07-01T14:57:32;22.40;73.50
25450;DHT22;13371;52.080;5.624;2022-07-01T14:59:57;22.30;73.40
25450;DHT22;13371;52.080;5.624;2022-07-01T15:02:24;22.30;72.70
25450;DHT22;13371;52.080;5.624;2022-07-01T15:04:49;22.30;73.50
25450;DHT22;13371;52.080;5.624;2022-07-01T15:07:15;22.40;73.70
25450;DHT22;13371;52.080;5.624;2022-07-01T15:09:41;22.30;72.80
25450;DHT22;13371;52.080;5.624;2022-07-01T15:12:07;22.40;73.80
25450;DHT22;13371;52.080;5.624;2022-07-01T15:14:33;22.00;73.60
25450;DHT22;13371;52.080;5.624;2022-07-01T15:16:59;21.80;75.30
25450;DHT22;13371;52.080;5.624;2022-07-01T15:19:28;21.80;74.90
25450;DHT22;13371;52.080;5.624;2022-07-01T15:21:54;21.80;74.50
25450;DHT22;13371;52.080;5.624;2022-07-01T15:24:20;21.90;74.90
25450;DHT22;13371;52.080;5.624;2022-07-01T15:26:46;21.80;74.10
25450;DHT22;13371;52.080;5.624;2022-07-01T15:29:12;21.90;74.60
25450;DHT22;13371;52.080;5.624;2022-07-01T15:31:37;22.00;72.70
25450;DHT22;13371;52.080;5.624;2022-07-01T15:34:03;22.00;74.50
25450;DHT22;13371;52.080;5.624;2022-07-01T15:36:29;22.20;77.00
25450;DHT22;13371;52.080;5.624;2022-07-01T15:38:54;22.30;73.60
25450;DHT22;13371;52.080;5.624;2022-07-01T15:41:23;22.30;72.50
25450;DHT22;13371;52.080;5.624;2022-07-01T15:43:52;22.50;72.20
25450;DHT22;13371;52.080;5.624;2022-07-01T15:46:18;22.50;73.40
25450;DHT22;13371;52.080;5.624;2022-07-01T15:48:43;22.40;73.20
25450;DHT22;13371;52.080;5.624;2022-07-01T15:51:10;22.50;72.10
25450;DHT22;13371;52.080;5.624;2022-07-01T15:53:36;22.50;73.50
25450;DHT22;13371;52.080;5.624;2022-07-01T15:56:02;22.50;74.60